createdAt,value
2023-05-06T00:01:22.690Z,95.74
2023-05-06T00:03:49.397Z,95.63
2023-05-06T00:06:16.038Z,94.56
2023-05-06T00:08:42.382Z,95.23
2023-05-06T00:11:08.753Z,94.91
2023-05-06T00:13:35.192Z,95.48
2023-05-06T00:16:01.659Z,95.66
2023-05-06T00:18:28.043Z,95.53
2023-05-06T00:20:54.419Z,94.92
2023-05-06T00:23:20.827Z,95.41
2023-05-06T00:25:47.258Z,95.06
2023-05-06T00:28:13.642Z,95.42
2023-05-06T00:30:40.023Z,95.26
2023-05-06T00:33:06.600Z,95.60
2023-05-06T00:35:32.968Z,95.54
2023-05-06T00:38:11.703Z,95.47
2023-05-06T00:40:38.521Z,95.88
2023-05-06T00:43:05.486Z,95.63
2023-05-06T00:45:32.650Z,95.75
2023-05-06T00:47:59.581Z,95.69
2023-05-06T00:50:28.337Z,95.95
2023-05-06T00:52:56.774Z,95.62
2023-05-06T00:55:23.252Z,95.83
2023-05-06T00:57:50.467Z,95.27
2023-05-06T01:00:17.349Z,95.59
2023-05-06T01:02:47.457Z,95.66
2023-05-06T01:05:17.649Z,96.01
2023-05-06T01:07:47.575Z,95.99
2023-05-06T01:10:20.047Z,95.91
2023-05-06T01:12:50.548Z,96.19
2023-05-06T01:15:38.714Z,95.78
2023-05-06T01:18:10.718Z,96.16
2023-05-06T01:20:38.348Z,96.43
2023-05-06T01:23:13.620Z,96.40
2023-05-06T01:25:40.691Z,96.27
2023-05-06T01:28:10.425Z,96.03
2023-05-06T01:30:48.785Z,96.05
2023-05-06T01:33:23.203Z,96.06
2023-05-06T01:36:03.633Z,95.71
2023-05-06T01:38:53.259Z,95.98
2023-05-06T01:41:21.291Z,95.98
2023-05-06T01:43:49.347Z,96.48
2023-05-06T01:46:19.100Z,95.96
2023-05-06T01:48:46.953Z,95.94
2023-05-06T01:51:13.368Z,95.82
2023-05-06T01:53:39.716Z,96.00
2023-05-06T01:56:06.887Z,96.06
2023-05-06T01:58:33.288Z,95.96
2023-05-06T02:00:59.662Z,95.89
2023-05-06T02:03:26.824Z,96.10
2023-05-06T02:05:53.302Z,96.35
2023-05-06T02:08:19.837Z,95.83
2023-05-06T02:10:46.235Z,96.14
2023-05-06T02:13:12.667Z,96.10
2023-05-06T02:15:39.083Z,95.92
2023-05-06T02:18:05.641Z,95.94
2023-05-06T02:20:32.058Z,95.64
2023-05-06T02:22:58.440Z,96.07
2023-05-06T02:25:24.848Z,95.63
2023-05-06T02:27:51.243Z,95.56
2023-05-06T02:30:17.649Z,95.58
2023-05-06T02:32:44.214Z,95.92
2023-05-06T02:35:11.016Z,95.25
2023-05-06T02:37:37.573Z,95.90
2023-05-06T02:40:06.296Z,95.70
2023-05-06T02:42:34.624Z,95.97
2023-05-06T02:45:01.161Z,95.80
2023-05-06T02:47:27.601Z,95.46
2023-05-06T02:49:54.020Z,95.72
2023-05-06T02:52:20.485Z,95.60
2023-05-06T02:54:46.869Z,95.40
2023-05-06T02:57:13.317Z,95.40
2023-05-06T02:59:39.671Z,95.49
2023-05-06T03:02:06.018Z,95.46
2023-05-06T03:04:32.535Z,95.43
2023-05-06T03:06:59.290Z,95.26
2023-05-06T03:09:25.744Z,94.98
2023-05-06T03:11:52.188Z,95.59
2023-05-06T03:14:18.683Z,95.20
2023-05-06T03:16:45.091Z,95.64
2023-05-06T03:19:11.490Z,95.33
2023-05-06T03:21:38.228Z,95.56
2023-05-06T03:24:04.965Z,95.47
2023-05-06T03:26:31.344Z,95.24
2023-05-06T03:28:57.736Z,95.69
2023-05-06T03:31:24.139Z,95.35
2023-05-06T03:33:50.492Z,95.82
2023-05-06T03:36:16.876Z,95.88
2023-05-06T03:38:43.262Z,95.84
2023-05-06T03:41:09.824Z,96.12
2023-05-06T03:43:36.263Z,95.70
2023-05-06T03:46:03.131Z,95.85
2023-05-06T03:48:29.638Z,96.71
2023-05-06T03:50:56.089Z,96.21
2023-05-06T03:53:22.538Z,95.91
2023-05-06T03:55:48.958Z,95.77
2023-05-06T03:58:16.170Z,95.85
2023-05-06T04:00:42.528Z,95.52
2023-05-06T04:03:09.444Z,95.25
2023-05-06T04:05:36.223Z,95.93
2023-05-06T04:08:02.737Z,95.71
2023-05-06T04:10:29.254Z,95.60
2023-05-06T04:12:55.784Z,95.83
2023-05-06T04:15:23.168Z,95.54
2023-05-06T04:17:49.671Z,95.40
2023-05-06T04:20:16.243Z,95.64
2023-05-06T04:22:42.563Z,95.62
2023-05-06T04:25:09.705Z,95.34
2023-05-06T04:27:36.289Z,95.37
2023-05-06T04:30:02.652Z,95.45
2023-05-06T04:32:29.044Z,95.47
2023-05-06T04:34:56.688Z,95.71
2023-05-06T04:37:23.288Z,95.46
2023-05-06T04:39:49.771Z,95.88
2023-05-06T04:42:16.748Z,95.76
2023-05-06T04:44:43.517Z,95.67
2023-05-06T04:47:09.951Z,95.98
2023-05-06T04:49:36.627Z,95.57
2023-05-06T04:52:03.401Z,95.80
2023-05-06T04:54:29.780Z,95.87
2023-05-06T04:56:56.223Z,96.36
2023-05-06T04:59:22.563Z,95.85
2023-05-06T05:01:49.068Z,95.85
2023-05-06T05:04:15.549Z,96.42
2023-05-06T05:06:42.102Z,97.06
2023-05-06T05:09:09.324Z,96.61
2023-05-06T05:11:38.064Z,96.35
2023-05-06T05:14:04.595Z,96.94
2023-05-06T05:16:31.156Z,96.20
2023-05-06T05:18:57.561Z,96.19
2023-05-06T05:21:23.946Z,96.27
2023-05-06T05:23:50.273Z,95.78
2023-05-06T05:26:16.822Z,95.79
2023-05-06T05:28:44.146Z,95.57
2023-05-06T05:31:10.972Z,95.82
2023-05-06T05:33:37.408Z,95.73
2023-05-06T05:36:04.680Z,95.64
2023-05-06T05:38:31.078Z,96.26
2023-05-06T05:40:57.481Z,95.93
2023-05-06T05:43:25.959Z,95.72
2023-05-06T05:45:52.593Z,95.36
2023-05-06T05:48:18.971Z,95.64
2023-05-06T05:50:46.110Z,95.00
2023-05-06T05:53:12.542Z,95.36
2023-05-06T05:55:38.882Z,95.68
2023-05-06T05:58:05.292Z,95.61
2023-05-06T06:00:31.756Z,94.83
2023-05-06T06:02:58.503Z,95.45
2023-05-06T06:05:24.999Z,95.23
2023-05-06T06:07:51.361Z,95.12
2023-05-06T06:10:17.754Z,95.35
2023-05-06T06:12:44.680Z,95.42
2023-05-06T06:15:11.812Z,95.13
2023-05-06T06:17:38.494Z,95.06
2023-05-06T06:20:05.904Z,95.16
2023-05-06T06:22:32.269Z,95.30
2023-05-06T06:24:58.673Z,94.89
2023-05-06T06:27:25.188Z,95.19
2023-05-06T06:29:51.592Z,94.92
2023-05-06T06:32:18.199Z,94.80
2023-05-06T06:34:44.602Z,94.72
2023-05-06T06:37:12.845Z,94.97
2023-05-06T06:39:39.247Z,94.61
2023-05-06T06:42:06.920Z,94.37
2023-05-06T06:44:33.996Z,94.45
2023-05-06T06:47:00.342Z,94.16
2023-05-06T06:49:27.183Z,94.24
2023-05-06T06:51:53.602Z,94.09
2023-05-06T06:54:20.103Z,94.29
2023-05-06T06:56:46.431Z,94.30
2023-05-06T06:59:12.828Z,94.33
2023-05-06T07:01:41.400Z,94.16
2023-05-06T07:04:07.881Z,93.80
2023-05-06T07:06:34.338Z,93.83
2023-05-06T07:09:00.694Z,93.86
2023-05-06T07:11:27.075Z,93.52
2023-05-06T07:13:53.442Z,93.40
2023-05-06T07:16:19.865Z,93.09
2023-05-06T07:18:46.396Z,92.63
2023-05-06T07:21:12.914Z,92.33
2023-05-06T07:23:39.254Z,91.76
2023-05-06T07:26:05.791Z,91.20
2023-05-06T07:28:32.141Z,91.32
2023-05-06T07:30:58.543Z,91.60
2023-05-06T07:33:24.967Z,91.42
2023-05-06T07:35:53.680Z,91.99
2023-05-06T07:38:23.952Z,91.38
2023-05-06T07:40:51.490Z,91.71
2023-05-06T07:43:17.904Z,91.57
2023-05-06T07:45:44.621Z,90.57
2023-05-06T07:48:11.080Z,90.31
2023-05-06T07:50:37.541Z,89.91
2023-05-06T07:53:04.142Z,89.51
2023-05-06T07:55:32.011Z,88.92
2023-05-06T07:57:59.159Z,88.88
2023-05-06T08:00:25.592Z,87.69
2023-05-06T08:02:52.061Z,88.97
2023-05-06T08:05:18.787Z,88.76
2023-05-06T08:07:45.194Z,86.99
2023-05-06T08:10:11.587Z,87.29
2023-05-06T08:12:38.143Z,86.89
2023-05-06T08:15:05.202Z,87.41
2023-05-06T08:17:31.635Z,86.06
2023-05-06T08:19:58.005Z,87.34
2023-05-06T08:22:24.375Z,87.53
2023-05-06T08:24:50.945Z,86.43
2023-05-06T08:27:17.369Z,84.53
2023-05-06T08:29:43.730Z,84.95
2023-05-06T08:32:10.142Z,83.50
2023-05-06T08:34:36.710Z,84.24
2023-05-06T08:37:03.250Z,83.47
2023-05-06T08:39:30.793Z,84.02
2023-05-06T08:41:59.249Z,82.95
2023-05-06T08:44:25.773Z,82.95
2023-05-06T08:46:52.238Z,82.31
2023-05-06T08:49:18.658Z,81.62
2023-05-06T08:51:45.855Z,82.81
2023-05-06T08:54:13.279Z,82.44
2023-05-06T08:56:45.007Z,80.99
2023-05-06T08:59:12.165Z,81.95
2023-05-06T09:01:38.811Z,82.64
2023-05-06T09:04:07.364Z,81.47
2023-05-06T09:06:34.213Z,80.89
2023-05-06T09:09:00.605Z,81.05
2023-05-06T09:11:31.976Z,81.22
2023-05-06T09:14:15.933Z,81.85
2023-05-06T09:16:47.449Z,81.35
2023-05-06T09:19:14.734Z,80.34
2023-05-06T09:21:43.009Z,80.66
2023-05-06T09:24:10.884Z,79.01
2023-05-06T09:26:38.859Z,80.70
2023-05-06T09:29:06.249Z,80.06
2023-05-06T09:31:33.153Z,77.59
2023-05-06T09:34:00.901Z,76.54
2023-05-06T09:36:28.277Z,75.57
2023-05-06T09:38:55.710Z,78.45
2023-05-06T09:41:25.175Z,77.29
2023-05-06T09:43:55.684Z,78.10
2023-05-06T09:46:23.285Z,77.70
2023-05-06T09:48:54.202Z,78.82
2023-05-06T09:51:21.064Z,78.22
2023-05-06T09:53:48.626Z,76.95
2023-05-06T09:56:16.136Z,77.19
2023-05-06T09:58:43.062Z,77.18
2023-05-06T10:01:09.945Z,78.37
2023-05-06T10:03:36.704Z,75.80
2023-05-06T10:06:06.205Z,74.96
2023-05-06T10:08:34.169Z,73.78
2023-05-06T10:11:01.715Z,71.00
2023-05-06T10:13:28.271Z,69.28
2023-05-06T10:15:55.207Z,68.19
2023-05-06T10:18:22.335Z,69.05
2023-05-06T10:20:53.494Z,70.93
2023-05-06T10:23:35.220Z,70.66
2023-05-06T10:26:07.710Z,70.16
2023-05-06T10:28:42.419Z,70.28
2023-05-06T10:31:12.846Z,67.92
2023-05-06T10:33:48.465Z,69.09
2023-05-06T10:36:22.765Z,66.17
2023-05-06T10:38:55.086Z,66.59
2023-05-06T10:41:22.784Z,63.60
2023-05-06T10:43:56.572Z,64.38
2023-05-06T10:46:24.643Z,60.69
2023-05-06T10:49:10.989Z,64.60
2023-05-06T10:51:47.987Z,64.54
2023-05-06T10:54:20.315Z,61.85
2023-05-06T10:56:49.823Z,62.32
2023-05-06T10:59:26.472Z,62.79
2023-05-06T11:02:08.800Z,63.48
2023-05-06T11:04:35.484Z,59.26
2023-05-06T11:07:07.574Z,62.65
2023-05-06T11:09:33.944Z,60.63
2023-05-06T11:12:05.002Z,58.20
2023-05-06T11:14:35.688Z,58.60
2023-05-06T11:17:07.741Z,61.29
2023-05-06T11:19:38.329Z,59.33
2023-05-06T11:22:06.938Z,58.30
2023-05-06T11:24:41.880Z,57.95
2023-05-06T11:27:09.715Z,58.07
2023-05-06T11:29:37.062Z,55.05
2023-05-06T11:32:05.304Z,56.34
2023-05-06T11:34:32.865Z,57.19
2023-05-06T11:37:04.378Z,56.87
2023-05-06T11:39:36.704Z,54.22
2023-05-06T11:42:07.238Z,56.75
2023-05-06T11:44:39.010Z,57.09
2023-05-06T11:47:07.823Z,54.40
2023-05-06T11:49:37.989Z,51.67
2023-05-06T11:52:05.127Z,53.04
2023-05-06T11:54:35.934Z,51.22
2023-05-06T11:57:03.485Z,52.83
2023-05-06T11:59:32.558Z,50.04
2023-05-06T12:02:03.261Z,54.01
2023-05-06T12:04:46.210Z,51.29
2023-05-06T12:07:14.732Z,49.06
2023-05-06T12:09:47.668Z,48.27
2023-05-06T12:12:19.948Z,50.56
2023-05-06T12:14:47.362Z,50.38
2023-05-06T12:17:15.455Z,48.07
2023-05-06T12:19:41.949Z,43.68
2023-05-06T12:22:21.906Z,47.66
2023-05-06T12:24:49.203Z,42.52
2023-05-06T12:27:34.955Z,42.53
2023-05-06T12:30:02.870Z,42.55
2023-05-06T12:32:29.375Z,41.77
2023-05-06T12:34:56.513Z,42.68
2023-05-06T12:37:29.461Z,43.81
2023-05-06T12:40:07.795Z,43.97
2023-05-06T12:42:34.318Z,46.93
2023-05-06T12:45:13.278Z,46.90
2023-05-06T12:47:39.696Z,46.51
2023-05-06T12:50:06.704Z,48.13
2023-05-06T12:52:33.384Z,49.60
2023-05-06T12:55:01.570Z,46.66
2023-05-06T12:57:27.950Z,45.35
2023-05-06T12:59:56.238Z,47.32
2023-05-06T13:02:22.712Z,44.17
2023-05-06T13:04:49.449Z,46.61
2023-05-06T13:07:15.954Z,43.97
2023-05-06T13:09:42.334Z,43.63
2023-05-06T13:12:08.705Z,45.34
2023-05-06T13:14:36.853Z,46.61
2023-05-06T13:17:06.693Z,43.97
2023-05-06T13:19:33.737Z,44.25
2023-05-06T13:22:01.215Z,43.84
2023-05-06T13:24:28.128Z,44.10
2023-05-06T13:26:56.243Z,44.71
2023-05-06T13:29:23.515Z,45.38
2023-05-06T13:31:50.034Z,42.96
2023-05-06T13:34:16.543Z,40.98
2023-05-06T13:36:43.810Z,39.86
2023-05-06T13:39:10.202Z,43.42
2023-05-06T13:41:36.592Z,38.70
2023-05-06T13:44:03.526Z,39.87
2023-05-06T13:46:30.976Z,37.96
2023-05-06T13:48:57.456Z,39.36
2023-05-06T13:51:27.577Z,37.28
2023-05-06T13:53:53.936Z,36.36
2023-05-06T13:56:21.466Z,38.17
2023-05-06T13:58:47.826Z,38.29
2023-05-06T14:01:14.590Z,37.22
2023-05-06T14:03:41.036Z,39.08
2023-05-06T14:06:08.767Z,37.46
2023-05-06T14:08:35.221Z,34.64
2023-05-06T14:11:01.896Z,36.15
2023-05-06T14:13:31.102Z,36.61
2023-05-06T14:15:57.821Z,37.27
2023-05-06T14:18:26.498Z,34.94
2023-05-06T14:20:53.471Z,36.45
2023-05-06T14:23:19.919Z,33.58
2023-05-06T14:25:46.247Z,35.04
2023-05-06T14:28:12.964Z,35.16
2023-05-06T14:30:39.702Z,36.13
2023-05-06T14:33:06.617Z,36.49
2023-05-06T14:35:33.037Z,38.25
2023-05-06T14:37:59.387Z,35.29
2023-05-06T14:40:25.970Z,36.23
2023-05-06T14:42:53.509Z,34.21
2023-05-06T14:45:21.034Z,36.03
2023-05-06T14:47:47.367Z,35.70
2023-05-06T14:50:13.992Z,37.32
2023-05-06T14:52:41.349Z,37.41
2023-05-06T14:55:09.608Z,37.83
2023-05-06T14:57:36.505Z,41.90
2023-05-06T15:00:10.217Z,37.43
2023-05-06T15:02:38.126Z,39.03
2023-05-06T15:05:05.059Z,39.91
2023-05-06T15:07:31.540Z,40.62
2023-05-06T15:09:57.981Z,40.39
2023-05-06T15:12:24.362Z,39.97
2023-05-06T15:14:50.836Z,40.15
2023-05-06T15:17:17.854Z,41.67
2023-05-06T15:19:44.254Z,41.97
2023-05-06T15:22:10.677Z,42.77
2023-05-06T15:24:37.425Z,42.45
2023-05-06T15:27:03.905Z,42.08
2023-05-06T15:29:30.473Z,43.00
2023-05-06T15:31:56.963Z,43.93
2023-05-06T15:34:24.486Z,45.37
2023-05-06T15:36:53.224Z,45.09
2023-05-06T15:39:20.051Z,43.58
2023-05-06T15:41:47.132Z,44.68
2023-05-06T15:46:42.487Z,43.22
2023-05-06T15:49:42.619Z,44.12
2023-05-06T15:51:59.109Z,43.15
2023-05-06T15:54:27.067Z,43.24
2023-05-06T15:56:53.506Z,44.06
2023-05-06T15:59:19.941Z,45.14
2023-05-06T16:04:16.419Z,43.60
2023-05-06T16:06:42.917Z,43.90
2023-05-06T16:09:10.394Z,45.28
2023-05-06T16:11:36.764Z,44.58
2023-05-06T16:14:03.837Z,45.30
2023-05-06T16:16:30.312Z,45.06
2023-05-06T16:18:56.727Z,45.77
2023-05-06T16:21:23.223Z,45.85
2023-05-06T16:23:49.606Z,44.00
2023-05-06T16:26:16.693Z,45.81
2023-05-06T16:28:43.340Z,44.86
2023-05-06T16:31:10.304Z,45.17
2023-05-06T16:33:36.845Z,44.69
2023-05-06T16:36:03.997Z,48.08
2023-05-06T16:38:30.584Z,45.94
2023-05-06T16:40:57.043Z,45.78
2023-05-06T16:43:23.490Z,48.22
2023-05-06T16:45:49.920Z,48.64
2023-05-06T16:48:16.621Z,48.87
2023-05-06T16:50:43.107Z,50.12
2023-05-06T16:53:09.598Z,49.94
2023-05-06T16:55:36.445Z,47.70
2023-05-06T16:58:03.679Z,47.96
2023-05-06T17:00:30.386Z,48.19
2023-05-06T17:02:56.861Z,48.99
2023-05-06T17:05:23.591Z,50.83
2023-05-06T17:07:50.723Z,47.95
2023-05-06T17:10:17.494Z,47.89
2023-05-06T17:12:44.008Z,48.57
2023-05-06T17:15:11.235Z,47.87
2023-05-06T17:17:37.696Z,48.84
2023-05-06T17:20:05.231Z,48.47
2023-05-06T17:22:31.750Z,49.84
2023-05-06T17:24:58.129Z,49.32
2023-05-06T17:27:24.563Z,51.05
2023-05-06T17:29:51.567Z,52.38
2023-05-06T17:32:19.675Z,52.67
2023-05-06T17:34:46.247Z,53.69
2023-05-06T17:37:12.752Z,50.56
2023-05-06T17:39:39.390Z,51.42
2023-05-06T17:42:05.830Z,51.92
2023-05-06T17:44:33.061Z,54.78
2023-05-06T17:46:59.634Z,57.23
2023-05-06T17:49:26.078Z,59.34
2023-05-06T17:51:52.673Z,61.09
2023-05-06T17:54:19.094Z,63.11
2023-05-06T17:56:50.305Z,64.18
2023-05-06T17:59:18.532Z,65.19
2023-05-06T18:01:45.243Z,66.23
2023-05-06T18:04:12.551Z,67.02
2023-05-06T18:06:41.405Z,67.92
2023-05-06T18:09:08.440Z,70.30
2023-05-06T18:11:35.178Z,71.74
2023-05-06T18:14:01.694Z,72.30
2023-05-06T18:16:28.242Z,73.72
2023-05-06T18:18:54.702Z,73.07
2023-05-06T18:21:21.166Z,73.85
2023-05-06T18:23:48.475Z,74.55
2023-05-06T18:26:21.396Z,74.21
2023-05-06T18:28:54.579Z,74.52
2023-05-06T18:31:20.994Z,75.81
2023-05-06T18:33:47.354Z,74.98
2023-05-06T18:36:13.886Z,76.02
2023-05-06T18:38:40.375Z,75.11
2023-05-06T18:41:07.901Z,75.62
2023-05-06T18:43:34.569Z,74.91
2023-05-06T18:46:00.986Z,76.64
2023-05-06T18:48:28.018Z,76.17
2023-05-06T18:50:54.413Z,75.75
2023-05-06T18:53:21.186Z,77.10
2023-05-06T18:55:47.594Z,76.48
2023-05-06T18:58:13.956Z,75.48
2023-05-06T19:00:40.877Z,77.38
2023-05-06T19:03:07.395Z,77.01
2023-05-06T19:05:33.885Z,76.38
2023-05-06T19:08:00.252Z,76.81
2023-05-06T19:10:26.616Z,77.26
2023-05-06T19:12:53.089Z,78.04
2023-05-06T19:15:19.606Z,78.72
2023-05-06T19:17:46.255Z,78.24
2023-05-06T19:20:14.259Z,78.00
2023-05-06T19:22:41.122Z,78.35
2023-05-06T19:25:08.354Z,79.68
2023-05-06T19:27:34.902Z,79.62
2023-05-06T19:30:01.271Z,80.23
2023-05-06T19:32:27.677Z,79.53
2023-05-06T19:34:54.121Z,80.35
2023-05-06T19:37:20.569Z,78.74
2023-05-06T19:39:47.573Z,81.54
2023-05-06T19:42:14.076Z,81.96
2023-05-06T19:44:40.878Z,81.76
2023-05-06T19:47:07.344Z,80.15
2023-05-06T19:49:33.734Z,80.40
2023-05-06T19:52:00.207Z,79.72
2023-05-06T19:54:26.973Z,81.17
2023-05-06T19:56:53.403Z,81.64
2023-05-06T19:59:19.830Z,82.11
2023-05-06T20:01:46.224Z,81.49
2023-05-06T20:04:12.665Z,81.81
2023-05-06T20:06:39.044Z,82.39
2023-05-06T20:09:05.400Z,81.67
2023-05-06T20:11:31.788Z,81.75
2023-05-06T20:13:58.121Z,81.20
2023-05-06T20:16:24.537Z,82.29
2023-05-06T20:18:53.005Z,82.23
2023-05-06T20:21:19.368Z,82.49
2023-05-06T20:23:45.753Z,81.58
2023-05-06T20:26:14.812Z,83.10
2023-05-06T20:28:41.209Z,82.32
2023-05-06T20:31:07.720Z,82.81
2023-05-06T20:33:34.139Z,82.92
2023-05-06T20:36:00.490Z,83.58
2023-05-06T20:38:27.212Z,83.13
2023-05-06T20:40:53.717Z,83.30
2023-05-06T20:43:20.102Z,82.46
2023-05-06T20:45:46.479Z,83.63
2023-05-06T20:48:14.822Z,82.70
2023-05-06T20:50:41.634Z,82.50
2023-05-06T20:53:08.021Z,83.43
2023-05-06T20:55:34.464Z,83.43
2023-05-06T20:58:00.856Z,84.01
2023-05-06T21:00:27.227Z,83.82
2023-05-06T21:02:53.689Z,84.32
2023-05-06T21:05:20.219Z,84.33
2023-05-06T21:07:46.578Z,83.50
2023-05-06T21:10:13.177Z,84.27
2023-05-06T21:12:39.655Z,82.80
2023-05-06T21:15:06.784Z,83.45
2023-05-06T21:17:33.199Z,83.40
2023-05-06T21:19:59.645Z,83.87
2023-05-06T21:22:26.256Z,84.21
2023-05-06T21:24:52.753Z,83.74
2023-05-06T21:27:19.164Z,83.77
2023-05-06T21:29:45.724Z,84.20
2023-05-06T21:32:12.203Z,84.62
2023-05-06T21:34:38.815Z,84.46
2023-05-06T21:37:05.234Z,83.67
2023-05-06T21:39:31.675Z,83.72
2023-05-06T21:41:58.108Z,83.76
2023-05-06T21:44:24.417Z,84.21
2023-05-06T21:46:50.906Z,84.73
2023-05-06T21:49:17.705Z,84.77
2023-05-06T21:51:44.222Z,84.65
2023-05-06T21:54:10.622Z,85.11
2023-05-06T21:56:36.941Z,84.76
2023-05-06T21:59:03.413Z,85.93
2023-05-06T22:01:29.840Z,85.38
2023-05-06T22:03:56.387Z,85.27
2023-05-06T22:06:23.150Z,84.95
2023-05-06T22:08:49.545Z,85.28
2023-05-06T22:11:16.395Z,84.74
2023-05-06T22:13:42.754Z,85.53
2023-05-06T22:16:09.674Z,85.15
2023-05-06T22:18:41.056Z,84.32
2023-05-06T22:21:08.509Z,85.17
2023-05-06T22:23:35.141Z,84.78
2023-05-06T22:26:01.503Z,85.39
2023-05-06T22:28:27.945Z,85.25
2023-05-06T22:30:54.319Z,85.54
2023-05-06T22:33:20.654Z,86.35
2023-05-06T22:35:47.066Z,85.43
2023-05-06T22:38:13.419Z,85.29
2023-05-06T22:40:39.845Z,85.84
2023-05-06T22:43:06.202Z,85.64
2023-05-06T22:45:32.640Z,86.09
2023-05-06T22:47:59.126Z,85.07
2023-05-06T22:50:25.575Z,85.59
2023-05-06T22:52:51.974Z,85.34
2023-05-06T22:55:18.446Z,85.41
2023-05-06T22:57:44.919Z,85.74
2023-05-06T23:00:12.855Z,85.49
2023-05-06T23:02:39.722Z,85.41
2023-05-06T23:05:06.530Z,86.03
2023-05-06T23:07:32.984Z,86.16
2023-05-06T23:09:59.649Z,86.13
2023-05-06T23:12:26.106Z,86.14
2023-05-06T23:14:52.535Z,85.59
2023-05-06T23:17:18.927Z,86.45
2023-05-06T23:19:45.950Z,86.24
2023-05-06T23:22:12.410Z,86.17
2023-05-06T23:24:39.022Z,86.69
2023-05-06T23:27:05.413Z,86.90
2023-05-06T23:29:31.834Z,86.64
2023-05-06T23:31:58.253Z,86.85
2023-05-06T23:34:24.842Z,86.78
2023-05-06T23:36:51.490Z,86.39
2023-05-06T23:39:17.912Z,87.13
2023-05-06T23:41:44.311Z,86.42
2023-05-06T23:44:10.650Z,86.42
2023-05-06T23:46:37.132Z,86.58
2023-05-06T23:49:04.162Z,86.09
2023-05-06T23:51:31.851Z,86.49
2023-05-06T23:53:58.351Z,86.51
2023-05-06T23:56:24.677Z,86.77
2023-05-06T23:58:51.029Z,86.58
